createdAt,value
2022-11-14T00:00:30.872Z,1.55
2022-11-14T00:03:02.533Z,1.58
2022-11-14T00:05:31.689Z,1.50
2022-11-14T00:08:24.913Z,2.10
2022-11-14T00:10:53.815Z,1.85
2022-11-14T00:13:23.042Z,1.70
2022-11-14T00:15:55.327Z,1.70
2022-11-14T00:18:25.019Z,1.70
2022-11-14T00:20:55.671Z,1.92
2022-11-14T00:23:24.244Z,1.85
2022-11-14T00:25:52.960Z,1.85
2022-11-14T00:28:21.310Z,1.83
2022-11-14T00:30:50.118Z,1.55
2022-11-14T00:33:22.376Z,1.80
2022-11-14T00:37:11.063Z,1.80
2022-11-14T00:40:13.963Z,1.90
2022-11-14T00:42:56.129Z,1.50
2022-11-14T00:46:00.325Z,1.45
2022-11-14T00:52:08.951Z,1.30
2022-11-14T00:54:38.974Z,1.20
2022-11-14T00:57:09.783Z,1.38
2022-11-14T00:59:41.985Z,1.38
2022-11-14T01:02:39.745Z,1.50
2022-11-14T01:05:10.800Z,1.48
2022-11-14T01:08:14.343Z,1.20
2022-11-14T01:10:43.623Z,1.20
2022-11-14T01:13:14.780Z,1.30
2022-11-14T01:15:47.534Z,1.20
2022-11-14T01:18:19.166Z,1.60
2022-11-14T01:20:51.022Z,1.10
2022-11-14T01:23:21.256Z,1.20
2022-11-14T01:25:49.743Z,1.40
2022-11-14T01:28:20.888Z,1.40
2022-11-14T01:30:49.858Z,1.50
2022-11-14T01:33:18.646Z,1.50
2022-11-14T01:35:49.907Z,1.10
2022-11-14T01:38:19.943Z,1.25
2022-11-14T01:40:48.614Z,1.55
2022-11-14T01:43:31.250Z,1.63
2022-11-14T01:46:06.202Z,1.20
2022-11-14T01:48:44.946Z,1.35
2022-11-14T01:51:30.650Z,1.30
2022-11-14T01:54:05.509Z,1.60
2022-11-14T01:56:38.231Z,1.50
2022-11-14T01:59:09.643Z,1.58
2022-11-14T02:01:44.166Z,1.30
2022-11-14T02:04:20.207Z,1.40
2022-11-14T02:06:52.880Z,1.75
2022-11-14T02:09:23.732Z,2.28
2022-11-14T02:11:56.393Z,2.22
2022-11-14T02:14:29.024Z,2.80
2022-11-14T02:17:22.693Z,2.75
2022-11-14T02:19:51.450Z,2.85
2022-11-14T02:22:23.539Z,3.53
2022-11-14T02:24:53.571Z,3.97
2022-11-14T02:27:22.307Z,2.70
2022-11-14T02:29:51.856Z,2.40
2022-11-14T02:32:20.286Z,2.30
2022-11-14T02:34:49.130Z,2.78
2022-11-14T02:37:18.696Z,2.40
2022-11-14T02:39:50.559Z,2.58
2022-11-14T02:42:19.490Z,2.80
2022-11-14T02:44:51.090Z,2.58
2022-11-14T02:47:20.694Z,3.20
2022-11-14T02:49:49.399Z,3.05
2022-11-14T02:52:24.031Z,4.50
2022-11-14T02:54:54.730Z,5.18
2022-11-14T02:57:24.849Z,6.57
2022-11-14T02:59:53.389Z,7.38
2022-11-14T03:02:21.834Z,7.15
2022-11-14T03:04:52.842Z,7.78
2022-11-14T03:07:21.556Z,7.50
2022-11-14T03:09:50.263Z,7.78
2022-11-14T03:12:21.698Z,7.40
2022-11-14T03:14:50.619Z,7.38
2022-11-14T03:17:20.062Z,6.32
2022-11-14T03:19:48.689Z,5.07
2022-11-14T03:22:17.634Z,4.28
2022-11-14T03:24:46.224Z,4.00
2022-11-14T03:27:14.894Z,4.20
2022-11-14T03:29:46.560Z,3.78
2022-11-14T03:32:15.297Z,3.30
2022-11-14T03:34:44.208Z,3.50
2022-11-14T03:37:13.671Z,3.63
2022-11-14T03:39:42.344Z,3.85
2022-11-14T03:42:11.954Z,4.13
2022-11-14T03:44:40.619Z,4.40
2022-11-14T03:47:11.935Z,4.93
2022-11-14T03:49:41.139Z,4.70
2022-11-14T03:52:09.824Z,5.10
2022-11-14T03:54:38.452Z,5.43
2022-11-14T03:57:09.871Z,5.20
2022-11-14T03:59:39.071Z,5.38
2022-11-14T04:02:07.579Z,5.55
2022-11-14T04:04:37.561Z,5.45
2022-11-14T04:07:16.351Z,5.20
2022-11-14T04:09:47.630Z,5.45
2022-11-14T04:12:16.424Z,6.10
2022-11-14T04:14:45.201Z,6.63
2022-11-14T04:17:14.226Z,7.80
2022-11-14T04:19:44.343Z,7.72
2022-11-14T04:22:12.783Z,7.10
2022-11-14T04:24:41.463Z,7.10
2022-11-14T04:27:09.860Z,7.57
2022-11-14T04:29:38.401Z,6.43
2022-11-14T04:32:07.569Z,6.50
2022-11-14T04:34:36.076Z,6.45
2022-11-14T04:37:07.064Z,6.70
2022-11-14T04:39:35.672Z,6.50
2022-11-14T04:42:06.579Z,7.47
2022-11-14T04:44:36.464Z,7.97
2022-11-14T04:47:05.204Z,9.95
2022-11-14T04:49:34.133Z,10.38
2022-11-14T04:52:03.424Z,10.77
2022-11-14T04:54:34.320Z,11.05
2022-11-14T04:57:03.831Z,10.63
2022-11-14T04:59:36.858Z,11.07
2022-11-14T05:02:05.518Z,9.93
2022-11-14T05:04:35.128Z,10.48
2022-11-14T05:07:03.869Z,10.23
2022-11-14T05:09:34.680Z,9.68
2022-11-14T05:12:03.428Z,9.70
2022-11-14T05:14:33.742Z,9.95
2022-11-14T05:17:03.291Z,8.77
2022-11-14T05:19:32.223Z,9.40
2022-11-14T05:22:00.958Z,8.38
2022-11-14T05:24:37.099Z,9.30
2022-11-14T05:27:07.034Z,8.85
2022-11-14T05:33:02.581Z,7.82
2022-11-14T05:36:24.285Z,7.30
2022-11-14T05:38:52.838Z,8.15
2022-11-14T05:41:28.778Z,7.30
2022-11-14T05:43:58.516Z,7.32
2022-11-14T05:46:27.109Z,6.75
2022-11-14T05:50:06.992Z,6.50
2022-11-14T05:52:37.268Z,5.78
2022-11-14T05:55:06.246Z,5.45
2022-11-14T05:57:37.125Z,4.93
2022-11-14T06:00:39.650Z,5.03
2022-11-14T06:03:11.400Z,5.10
2022-11-14T06:05:46.453Z,5.30
2022-11-14T06:08:15.025Z,4.97
2022-11-14T06:14:08.230Z,4.60
2022-11-14T06:17:37.416Z,4.18
2022-11-14T06:20:25.230Z,3.50
2022-11-14T06:22:56.633Z,3.67
2022-11-14T06:25:25.450Z,4.22
2022-11-14T06:32:56.935Z,4.20
2022-11-14T06:39:57.003Z,4.60
2022-11-14T06:43:03.027Z,5.18
2022-11-14T06:46:05.228Z,4.55
2022-11-14T06:48:34.273Z,4.50
2022-11-14T06:51:22.167Z,4.43
2022-11-14T06:53:51.785Z,5.10
2022-11-14T06:59:48.401Z,5.55
2022-11-14T07:02:21.713Z,5.57
2022-11-14T07:04:51.589Z,5.65
2022-11-14T07:08:19.767Z,5.68
2022-11-14T07:10:51.108Z,5.18
2022-11-14T07:13:20.043Z,5.47
2022-11-14T07:15:52.626Z,5.40
2022-11-14T07:18:21.917Z,4.80
2022-11-14T07:20:50.595Z,4.10
2022-11-14T07:23:22.879Z,3.72
2022-11-14T07:25:53.439Z,3.55
2022-11-14T07:28:24.144Z,3.20
2022-11-14T07:30:53.257Z,3.28
2022-11-14T07:33:22.794Z,2.70
2022-11-14T07:35:52.269Z,2.80
2022-11-14T07:38:20.754Z,3.00
2022-11-14T07:40:59.885Z,2.50
2022-11-14T07:43:29.751Z,2.70
2022-11-14T07:46:00.985Z,2.42
2022-11-14T07:48:29.839Z,2.28
2022-11-14T07:51:02.393Z,2.28
2022-11-14T07:53:31.750Z,2.10
2022-11-14T07:56:05.921Z,1.90
2022-11-14T07:58:36.554Z,2.00
2022-11-14T08:01:08.103Z,2.20
2022-11-14T08:03:42.315Z,2.10
2022-11-14T08:06:16.002Z,2.20
2022-11-14T08:08:44.734Z,1.98
2022-11-14T08:11:23.069Z,2.03
2022-11-14T08:14:03.119Z,1.95
2022-11-14T08:16:31.628Z,1.95
2022-11-14T08:29:22.741Z,1.70
2022-11-14T08:31:53.518Z,2.00
2022-11-14T08:34:29.717Z,1.70
2022-11-14T08:37:01.011Z,1.73
2022-11-14T08:39:30.430Z,1.83
2022-11-14T08:41:59.018Z,2.08
2022-11-14T08:44:29.515Z,2.17
2022-11-14T08:47:00.755Z,2.13
2022-11-14T08:49:30.332Z,2.22
2022-11-14T08:51:59.085Z,2.20
2022-11-14T08:54:27.781Z,2.45
2022-11-14T08:56:56.411Z,2.55
2022-11-14T08:59:25.272Z,1.92
2022-11-14T09:01:55.253Z,2.30
2022-11-14T09:04:25.683Z,2.17
2022-11-14T09:06:54.485Z,2.33
2022-11-14T09:09:25.072Z,2.25
2022-11-14T09:11:54.320Z,2.10
2022-11-14T09:14:28.216Z,1.75
2022-11-14T09:17:04.606Z,1.92
2022-11-14T09:19:34.652Z,2.00
2022-11-14T09:22:03.722Z,2.20
2022-11-14T09:24:32.103Z,2.00
2022-11-14T09:27:08.874Z,1.90
2022-11-14T09:29:37.838Z,2.22
2022-11-14T09:32:08.074Z,1.48
2022-11-14T09:34:37.921Z,1.70
2022-11-14T09:37:06.917Z,1.70
2022-11-14T09:39:38.294Z,1.70
2022-11-14T09:42:21.672Z,1.80
2022-11-14T09:44:59.686Z,1.67
2022-11-14T09:47:33.730Z,1.52
2022-11-14T09:50:10.611Z,1.70
2022-11-14T09:52:45.340Z,1.90
2022-11-14T09:55:18.945Z,1.75
2022-11-14T09:57:48.126Z,1.75
2022-11-14T10:00:19.536Z,1.52
2022-11-14T10:03:03.764Z,1.67
2022-11-14T10:05:58.123Z,1.60
2022-11-14T10:08:49.609Z,1.52
2022-11-14T10:11:25.671Z,1.50
2022-11-14T10:14:32.315Z,1.55
2022-11-14T10:17:15.275Z,1.90
2022-11-14T10:19:53.414Z,1.90
2022-11-14T10:22:37.714Z,1.70
2022-11-14T10:25:23.054Z,1.83
2022-11-14T10:28:05.662Z,1.88
2022-11-14T10:30:42.907Z,1.95
2022-11-14T10:33:25.476Z,1.73
2022-11-14T10:41:09.157Z,1.75
2022-11-14T16:07:16.159Z,1.33
2022-11-14T16:09:47.224Z,1.77
2022-11-14T16:12:17.346Z,1.85
2022-11-14T16:14:47.266Z,1.60
2022-11-14T16:57:14.152Z,2.22
2022-11-14T17:23:23.483Z,2.80
2022-11-14T17:25:52.191Z,2.00
2022-11-14T17:28:20.832Z,1.60
2022-11-14T17:30:50.003Z,1.73
2022-11-14T17:33:20.387Z,2.15
2022-11-14T17:35:49.501Z,2.33
2022-11-14T17:38:17.955Z,2.13
2022-11-14T17:40:47.826Z,2.72
2022-11-14T17:43:18.125Z,2.50
2022-11-14T17:45:55.792Z,3.85
2022-11-14T17:48:27.307Z,3.78
2022-11-14T17:50:56.097Z,4.32
2022-11-14T17:53:24.668Z,3.63
2022-11-14T17:55:58.529Z,6.68
2022-11-14T17:58:30.102Z,3.95
2022-11-14T18:01:00.444Z,3.83
2022-11-14T18:03:29.591Z,2.88
2022-11-14T18:06:08.846Z,2.58
2022-11-14T18:08:38.018Z,4.03
2022-11-14T18:11:11.313Z,2.97
2022-11-14T18:13:40.519Z,3.38
2022-11-14T18:16:12.026Z,2.88
2022-11-14T18:18:40.759Z,3.45
2022-11-14T18:21:10.150Z,2.90
2022-11-14T18:23:39.995Z,3.30
2022-11-14T18:26:15.890Z,5.47
2022-11-14T18:28:45.105Z,3.55
2022-11-14T18:31:14.152Z,2.85
2022-11-14T18:33:43.719Z,7.20
2022-11-14T18:36:13.635Z,4.00
2022-11-14T18:38:44.460Z,3.17
2022-11-14T18:41:16.444Z,3.03
2022-11-14T18:43:45.754Z,2.95
2022-11-14T18:46:16.426Z,4.03
2022-11-14T18:48:47.802Z,3.00
2022-11-14T18:51:19.636Z,4.70
2022-11-14T18:53:48.584Z,3.88
2022-11-14T18:56:21.692Z,3.60
2022-11-14T18:58:55.436Z,4.35
2022-11-14T19:01:30.314Z,4.72
2022-11-14T19:04:01.663Z,4.45
2022-11-14T19:06:32.432Z,4.13
2022-11-14T19:09:05.552Z,6.78
2022-11-14T19:11:55.550Z,6.32
2022-11-14T19:14:23.973Z,3.42
2022-11-14T19:16:52.361Z,7.20
2022-11-14T19:19:22.724Z,6.80
2022-11-14T19:21:51.625Z,8.98
2022-11-14T19:24:21.217Z,3.53
2022-11-14T19:26:51.496Z,7.50
2022-11-14T19:29:20.032Z,4.07
2022-11-14T19:31:48.655Z,4.20
2022-11-14T19:34:17.258Z,4.95
2022-11-14T19:36:59.491Z,2.83
2022-11-14T19:39:28.921Z,3.42
2022-11-14T19:41:58.847Z,3.40
2022-11-14T19:44:28.974Z,3.35
2022-11-14T19:46:58.823Z,3.58
2022-11-14T19:49:27.246Z,3.30
2022-11-14T19:51:56.265Z,3.58
2022-11-14T19:54:25.207Z,4.65
2022-11-14T19:56:53.653Z,3.85
2022-11-14T19:59:24.754Z,2.85
2022-11-14T20:01:55.615Z,3.88
2022-11-14T20:04:24.823Z,3.60
2022-11-14T20:06:54.207Z,3.90
2022-11-14T20:09:23.408Z,3.65
2022-11-14T20:11:51.883Z,3.88
2022-11-14T20:14:20.582Z,3.35
2022-11-14T20:16:50.920Z,4.03
2022-11-14T20:19:19.575Z,3.92
2022-11-14T20:21:50.471Z,3.72
2022-11-14T20:24:21.837Z,3.90
2022-11-14T20:26:50.828Z,3.70
2022-11-14T20:29:19.199Z,3.67
2022-11-14T20:31:47.895Z,3.03
2022-11-14T20:34:19.354Z,3.33
2022-11-14T20:39:36.682Z,3.45
2022-11-14T20:42:08.531Z,3.60
2022-11-14T20:44:38.432Z,3.00
2022-11-14T20:47:10.813Z,3.35
2022-11-14T20:49:43.074Z,3.80
2022-11-14T20:52:11.666Z,3.85
2022-11-14T20:54:40.748Z,2.95
2022-11-14T20:57:09.286Z,3.70
2022-11-14T20:59:37.848Z,3.47
2022-11-14T21:02:06.710Z,3.75
2022-11-14T21:04:35.381Z,2.95
2022-11-14T21:07:05.393Z,2.90
2022-11-14T21:09:34.009Z,2.72
2022-11-14T21:12:02.640Z,3.25
2022-11-14T21:14:36.836Z,2.83
2022-11-14T21:17:05.345Z,2.25
2022-11-14T21:19:33.882Z,2.90
2022-11-14T21:22:02.260Z,3.00
2022-11-14T21:24:35.668Z,2.70
2022-11-14T21:27:11.544Z,2.53
2022-11-14T21:29:40.158Z,3.03
2022-11-14T21:32:09.447Z,2.70
2022-11-14T21:34:37.997Z,2.90
2022-11-14T21:37:07.090Z,3.22
2022-11-14T21:39:36.934Z,3.20
2022-11-14T21:42:05.696Z,3.55
2022-11-14T21:44:34.604Z,2.95
2022-11-14T21:47:03.115Z,2.75
2022-11-14T21:49:32.022Z,2.92
2022-11-14T21:52:00.675Z,2.50
2022-11-14T21:54:29.223Z,2.60
2022-11-14T21:57:10.220Z,2.53
2022-11-14T21:59:39.213Z,2.30
2022-11-14T22:02:29.657Z,2.78
2022-11-14T22:04:59.539Z,2.35
2022-11-14T22:07:35.234Z,2.30
2022-11-14T22:10:06.608Z,2.00
2022-11-14T22:12:36.642Z,2.20
2022-11-14T22:15:05.821Z,1.77
2022-11-14T22:17:35.207Z,1.75
2022-11-14T22:20:03.804Z,1.55
2022-11-14T22:22:33.348Z,1.50
2022-11-14T22:25:01.893Z,1.63
2022-11-14T22:27:32.627Z,1.60
2022-11-14T22:30:03.003Z,1.50
2022-11-14T22:32:31.292Z,1.15
2022-11-14T22:34:59.740Z,1.48
2022-11-14T22:37:41.569Z,2.33
2022-11-14T22:40:26.313Z,1.50
2022-11-14T22:42:55.497Z,1.92
2022-11-14T22:45:29.410Z,1.45
2022-11-14T22:48:11.881Z,1.98
2022-11-14T22:50:47.525Z,1.88
2022-11-14T22:53:18.014Z,1.50
2022-11-14T22:56:01.338Z,1.63
2022-11-14T22:58:32.591Z,1.40
2022-11-14T23:01:12.948Z,1.60
2022-11-14T23:03:49.039Z,2.05
2022-11-14T23:06:21.243Z,1.48
2022-11-14T23:08:57.044Z,1.73
2022-11-14T23:11:39.665Z,1.85
2022-11-14T23:14:08.632Z,1.70
2022-11-14T23:16:38.627Z,1.50
2022-11-14T23:19:07.158Z,1.50
2022-11-14T23:21:39.281Z,1.15
2022-11-14T23:24:12.628Z,1.23
2022-11-14T23:26:42.155Z,1.40
2022-11-14T23:29:14.765Z,1.30
2022-11-14T23:31:44.723Z,1.27
2022-11-14T23:34:13.361Z,1.23
2022-11-14T23:36:41.960Z,1.35
2022-11-14T23:39:10.874Z,1.27
2022-11-14T23:41:39.920Z,1.25
2022-11-14T23:44:08.800Z,1.30
2022-11-14T23:46:37.233Z,1.27
2022-11-14T23:49:08.295Z,1.25
2022-11-14T23:51:37.137Z,1.65
2022-11-14T23:54:05.892Z,1.10
2022-11-14T23:56:34.476Z,1.20
2022-11-14T23:59:03.411Z,1.17
